Terminal Aerodrome Forecast
Issued by NWS Louisville, KY

Home | Current Version | Previous Version | Text Only | Print | Product List | Glossary On
Versions: 1 2 3 4 5 6 7 8 9 10 11 12 13 14 15
000
FTUS43 KLMK 010520
TAFSDF
TAF
KSDF 010520Z 0106/0212 26008KT P6SM OVC045
     FM011200 25011G19KT P6SM SCT035
     FM012300 25005KT P6SM SCT035=

USA.gov is the U.S. government's official web portal to all federal, state and local government web resources and services.